Airport ID:KN38
Update Time (UTC):20/08/2019 15:04
Wind Speed (Knots):6
Wind Direction (Magnetic):170
Temperature (°C):23
Dew Point (°C):17
Humidity (%):70
Altimeter (inHg):30.18
Density Altitude (Feet):3300
Visibility (Miles):10+
Clouds (Hundreds of feet):CLR
Present Weather:
METAR:METAR KN38 201500Z AUTO 14005KT 10SM CLR 23/17 A3018 RMK AO2

The data displayed is for advisory purposes only and is not to be used for flight planning or operations.

This page is not automatically refreshed. Reload the page to see current data.